Time;durP1;ratioP1;P1;durP2;ratioP2;P2;SDS_P1;SDS_P2;PMS_P1;PMS_P2;Temp;Humidity;BMP_temperature;BMP_pressure;BME280_temperature;BME280_humidity;BME280_pressure;Samples;Min_cycle;Max_cycle;Signal;HPM_P1;HPM_P2
2021/10/30 00:00:13;;;;;;;21.02;10.05;;;;;;;11.20;100.00;100529.53;5010272;28;20053;-74
2021/10/30 00:02:41;;;;;;;21.25;10.77;;;;;;;11.23;100.00;100532.09;5005050;28;20060;-74
2021/10/30 00:05:12;;;;;;;22.00;11.27;;;;;;;11.26;100.00;100531.13;5008551;28;20353;-74
2021/10/30 00:07:43;;;;;;;19.73;9.70;;;;;;;11.24;100.00;100531.19;5007438;28;20334;-74
2021/10/30 00:10:14;;;;;;;19.38;10.63;;;;;;;11.21;100.00;100529.50;5007987;28;20056;-74
2021/10/30 00:12:43;;;;;;;17.67;9.27;;;;;;;11.29;100.00;100529.19;5008094;28;20057;-74
2021/10/30 00:15:12;;;;;;;20.67;9.73;;;;;;;11.31;100.00;100532.66;5005290;28;20089;-75
2021/10/30 00:17:41;;;;;;;19.05;10.45;;;;;;;11.34;100.00;100524.53;5008221;28;20131;-74
2021/10/30 00:20:10;;;;;;;21.52;11.20;;;;;;;11.38;100.00;100525.28;5005831;28;20046;-74
2021/10/30 00:22:37;;;;;;;18.38;9.52;;;;;;;11.39;100.00;100525.22;5007398;28;20054;-74
2021/10/30 00:25:08;;;;;;;15.73;9.85;;;;;;;11.42;100.00;100528.69;5004704;28;20180;-74
2021/10/30 00:27:37;;;;;;;18.80;9.45;;;;;;;11.51;100.00;100539.00;5009130;28;20041;-74
2021/10/30 00:30:05;;;;;;;18.75;9.48;;;;;;;11.57;100.00;100536.09;5007588;28;20145;-74
2021/10/30 00:32:33;;;;;;;19.00;10.27;;;;;;;11.55;100.00;100533.47;5007960;28;20124;-74
2021/10/30 00:35:01;;;;;;;17.17;8.93;;;;;;;11.57;100.00;100533.41;5009740;28;20056;-74
2021/10/30 00:37:29;;;;;;;19.70;9.50;;;;;;;11.53;100.00;100530.00;5004887;28;20132;-74
2021/10/30 00:39:57;;;;;;;17.08;9.82;;;;;;;11.58;100.00;100532.50;5008327;28;20142;-74
2021/10/30 00:42:26;;;;;;;16.50;8.98;;;;;;;11.57;100.00;100531.59;5004080;28;20097;-74
2021/10/30 00:44:53;;;;;;;18.80;9.35;;;;;;;11.58;100.00;100519.13;5008810;28;20048;-74
2021/10/30 00:47:21;;;;;;;16.30;10.45;;;;;;;11.62;100.00;100522.53;5005111;28;20133;-74
2021/10/30 00:49:49;;;;;;;18.88;9.45;;;;;;;11.61;100.00;100521.66;5003340;28;20048;-74
2021/10/30 00:52:17;;;;;;;17.63;10.77;;;;;;;11.62;100.00;100519.88;5009883;28;20095;-74
2021/10/30 00:54:45;;;;;;;18.10;10.73;;;;;;;11.62;100.00;100510.03;5005619;28;20041;-74
2021/10/30 00:57:14;;;;;;;21.10;10.55;;;;;;;11.59;100.00;100507.50;5007886;28;20521;-74
2021/10/30 00:59:43;;;;;;;18.50;11.38;;;;;;;11.61;100.00;100502.94;5002090;28;20046;-74
2021/10/30 01:02:11;;;;;;;19.80;10.85;;;;;;;11.60;100.00;100503.91;5010580;28;20049;-74
2021/10/30 01:04:40;;;;;;;20.20;10.23;;;;;;;11.58;100.00;100495.09;5003880;28;20052;-75
2021/10/30 01:07:08;;;;;;;17.77;10.50;;;;;;;11.55;100.00;100490.72;5003857;28;20056;-74
2021/10/30 01:09:36;;;;;;;19.27;11.50;;;;;;;11.56;100.00;100489.81;5007735;28;20042;-74
2021/10/30 01:12:04;;;;;;;21.02;11.52;;;;;;;11.56;100.00;100492.47;5006396;28;20053;-74
2021/10/30 01:14:34;;;;;;;20.98;11.90;;;;;;;11.55;100.00;100487.19;5005368;28;20699;-74
2021/10/30 01:17:07;;;;;;;20.63;11.45;;;;;;;11.54;100.00;100494.34;5004745;28;20053;-74
2021/10/30 01:19:35;;;;;;;19.15;11.20;;;;;;;11.54;100.00;100491.69;5007925;28;20077;-74
2021/10/30 01:22:05;;;;;;;21.60;11.40;;;;;;;11.55;100.00;100497.88;5003234;28;20053;-74
2021/10/30 01:24:33;;;;;;;22.60;11.85;;;;;;;11.59;100.00;100489.69;5007963;28;20057;-74
2021/10/30 01:27:01;;;;;;;19.92;11.55;;;;;;;11.58;100.00;100485.25;5007022;28;20270;-74
2021/10/30 01:29:30;;;;;;;20.65;11.43;;;;;;;11.64;100.00;100484.13;5006633;28;20141;-74
2021/10/30 01:31:57;;;;;;;20.08;11.45;;;;;;;11.56;100.00;100478.22;5002986;28;21362;-74
2021/10/30 01:34:28;;;;;;;23.48;11.85;;;;;;;11.55;100.00;100479.16;5006344;28;20061;-74
2021/10/30 01:36:56;;;;;;;16.50;10.38;;;;;;;11.49;100.00;100479.41;5004553;28;20073;-74
2021/10/30 01:39:26;;;;;;;17.42;10.05;;;;;;;11.50;100.00;100475.81;5005251;28;20049;-74
2021/10/30 01:41:54;;;;;;;20.17;10.38;;;;;;;11.49;100.00;100479.41;5008315;28;20936;-74
2021/10/30 01:44:22;;;;;;;19.25;9.38;;;;;;;11.44;100.00;100476.06;5004103;28;20045;-73
2021/10/30 01:46:56;;;;;;;18.85;8.68;;;;;;;11.51;100.00;100469.53;5003461;28;20047;-74
2021/10/30 01:49:24;;;;;;;16.40;8.90;;;;;;;11.48;100.00;100461.66;5001604;28;20053;-75
2021/10/30 01:51:52;;;;;;;15.35;8.70;;;;;;;11.38;100.00;100466.50;5004226;28;20068;-74
2021/10/30 01:54:20;;;;;;;17.38;8.52;;;;;;;11.32;100.00;100470.31;5000308;28;20398;-73
2021/10/30 01:56:49;;;;;;;13.40;7.90;;;;;;;11.33;100.00;100465.84;5006359;28;20051;-73
2021/10/30 01:59:17;;;;;;;16.25;8.07;;;;;;;11.29;100.00;100459.75;5006780;28;20380;-73
2021/10/30 02:01:45;;;;;;;14.82;7.70;;;;;;;11.28;100.00;100454.47;4993770;28;20045;-74
2021/10/30 02:04:13;;;;;;;16.35;8.63;;;;;;;11.26;100.00;100448.34;5008390;28;20056;-75
2021/10/30 02:06:41;;;;;;;14.57;8.32;;;;;;;11.19;100.00;100439.69;5005752;28;20136;-73
2021/10/30 02:09:08;;;;;;;16.30;8.68;;;;;;;11.11;100.00;100418.63;5003163;28;20053;-74
2021/10/30 02:11:36;;;;;;;16.90;8.50;;;;;;;11.04;100.00;100414.47;5004316;28;20056;-74
2021/10/30 02:14:05;;;;;;;17.95;8.40;;;;;;;10.99;100.00;100424.47;5004422;28;20076;-74
2021/10/30 02:16:35;;;;;;;18.58;9.30;;;;;;;11.00;100.00;100424.41;5004891;28;20052;-73
2021/10/30 02:19:03;;;;;;;16.30;8.70;;;;;;;10.95;100.00;100425.56;5005078;28;20058;-72
2021/10/30 02:21:31;;;;;;;15.63;8.73;;;;;;;10.95;100.00;100415.72;5003723;28;20228;-72
2021/10/30 02:23:58;;;;;;;16.10;8.90;;;;;;;10.92;100.00;100412.31;5004027;28;20058;-72
2021/10/30 02:26:50;;;;;;;18.30;9.32;;;;;;;10.92;100.00;100394.50;5009211;28;20672;-66
2021/10/30 02:29:20;;;;;;;16.90;8.73;;;;;;;10.88;100.00;100397.34;5000316;28;20056;-66
2021/10/30 02:31:48;;;;;;;16.25;9.93;;;;;;;10.83;100.00;100379.72;5007222;28;20466;-66
2021/10/30 02:34:15;;;;;;;21.02;9.50;;;;;;;10.81;100.00;100373.59;5000697;28;20046;-66
2021/10/30 02:36:43;;;;;;;18.90;9.23;;;;;;;10.79;100.00;100370.09;5005209;28;21529;-66
2021/10/30 02:39:11;;;;;;;15.90;8.50;;;;;;;10.79;100.00;100362.06;5002376;28;20076;-66
2021/10/30 02:41:40;;;;;;;17.70;8.68;;;;;;;10.85;100.00;100371.66;5003402;28;20050;-66
2021/10/30 02:44:07;;;;;;;18.33;9.27;;;;;;;10.82;100.00;100361.97;5008071;28;20052;-67
2021/10/30 02:46:37;;;;;;;20.15;10.05;;;;;;;10.82;100.00;100353.09;5003581;28;20240;-66
2021/10/30 02:49:04;;;;;;;19.55;9.73;;;;;;;10.82;100.00;100356.63;5005745;28;20053;-66
2021/10/30 02:51:32;;;;;;;15.52;9.27;;;;;;;10.83;100.00;100357.50;5004230;28;20489;-68
2021/10/30 02:54:00;;;;;;;18.27;10.38;;;;;;;10.84;100.00;100348.56;5002911;28;20060;-66
2021/10/30 02:56:28;;;;;;;16.67;9.60;;;;;;;10.83;100.00;100330.81;5002213;28;20076;-68
2021/10/30 02:58:56;;;;;;;18.02;9.23;;;;;;;10.90;100.00;100326.09;5005330;28;20063;-70
2021/10/30 03:01:25;;;;;;;19.65;10.05;;;;;;;10.89;100.00;100319.00;5004626;28;20050;-68
2021/10/30 03:03:54;;;;;;;14.38;8.65;;;;;;;10.88;100.00;100310.16;5001382;28;20137;-66
2021/10/30 03:06:22;;;;;;;19.90;11.30;;;;;;;10.94;100.00;100309.88;5007783;28;20050;-68
2021/10/30 03:08:50;;;;;;;16.42;8.93;;;;;;;10.92;100.00;100308.22;5002786;28;20081;-65
2021/10/30 03:11:18;;;;;;;17.00;8.73;;;;;;;10.92;100.00;100305.53;5002949;28;20100;-70
2021/10/30 03:13:46;;;;;;;17.27;9.02;;;;;;;10.95;100.00;100306.28;5000971;28;20515;-65
2021/10/30 03:16:14;;;;;;;18.02;8.82;;;;;;;10.93;100.00;100293.91;5004971;28;20497;-66
2021/10/30 03:18:42;;;;;;;15.52;8.90;;;;;;;10.93;100.00;100294.81;5002869;28;20522;-69
2021/10/30 03:21:11;;;;;;;20.17;9.45;;;;;;;10.97;100.00;100296.41;5006098;28;20663;-66
2021/10/30 03:23:39;;;;;;;15.50;9.18;;;;;;;10.92;100.00;100293.06;5003894;28;20046;-66
2021/10/30 03:26:07;;;;;;;15.45;8.85;;;;;;;10.96;100.00;100296.47;5005656;28;20483;-69
2021/10/30 03:28:35;;;;;;;13.90;8.73;;;;;;;10.93;100.00;100291.25;5003482;28;20085;-66
2021/10/30 03:31:02;;;;;;;13.77;7.95;;;;;;;10.91;100.00;100290.44;5001269;28;20052;-66
2021/10/30 03:33:31;;;;;;;18.83;9.68;;;;;;;10.93;100.00;100281.47;5003698;28;20217;-66
2021/10/30 03:35:59;;;;;;;16.80;8.73;;;;;;;10.92;100.00;100279.72;5001503;28;20173;-67
2021/10/30 03:38:28;;;;;;;16.30;9.18;;;;;;;10.88;100.00;100286.13;5002450;28;20535;-67
2021/10/30 03:40:57;;;;;;;14.98;8.57;;;;;;;10.90;100.00;100288.72;5000571;28;20083;-68
2021/10/30 03:43:27;;;;;;;15.20;8.90;;;;;;;10.88;100.00;100285.22;5002119;28;20053;-67
2021/10/30 03:45:55;;;;;;;17.13;8.70;;;;;;;10.91;100.00;100279.78;4998749;28;20159;-66
2021/10/30 03:48:22;;;;;;;17.25;9.50;;;;;;;10.94;100.00;100274.31;5002537;28;20409;-73
2021/10/30 03:50:51;;;;;;;15.98;8.90;;;;;;;10.94;100.00;100268.97;5005784;28;20053;-74
2021/10/30 03:53:19;;;;;;;17.63;8.55;;;;;;;10.97;100.00;100259.03;4997777;28;20499;-73
2021/10/30 03:55:49;;;;;;;15.00;8.07;;;;;;;10.92;100.00;100266.38;5003539;28;20084;-74
2021/10/30 03:58:17;;;;;;;20.23;8.95;;;;;;;11.00;100.00;100258.03;4999433;28;20159;-74
2021/10/30 04:00:45;;;;;;;17.15;8.98;;;;;;;10.96;100.00;100245.75;5002824;28;20402;-74
2021/10/30 04:03:13;;;;;;;17.25;9.02;;;;;;;10.95;100.00;100244.03;5000220;28;20053;-73
2021/10/30 04:05:41;;;;;;;18.17;9.93;;;;;;;10.95;100.00;100241.34;5004486;28;20065;-73
2021/10/30 04:08:12;;;;;;;14.75;8.80;;;;;;;10.94;100.00;100237.81;4999868;28;20100;-73
2021/10/30 04:10:42;;;;;;;17.52;9.63;;;;;;;11.01;100.00;100238.41;5002225;28;20145;-73
2021/10/30 04:13:11;;;;;;;14.25;8.85;;;;;;;10.96;100.00;100235.94;5003805;28;20137;-74
2021/10/30 04:15:40;;;;;;;16.80;8.70;;;;;;;10.96;100.00;100235.94;5002271;28;20053;-73
2021/10/30 04:18:07;;;;;;;16.38;9.02;;;;;;;10.95;100.00;100234.22;5004689;28;20057;-73
2021/10/30 04:20:35;;;;;;;19.15;9.57;;;;;;;11.00;100.00;100226.00;5000677;28;20076;-75
2021/10/30 04:23:03;;;;;;;13.95;8.40;;;;;;;10.98;100.00;100228.75;5002700;28;20058;-74
2021/10/30 04:25:31;;;;;;;16.23;8.60;;;;;;;11.01;100.00;100225.06;5002725;28;20270;-74
2021/10/30 04:27:58;;;;;;;17.95;9.73;;;;;;;10.96;100.00;100219.06;5005770;28;20075;-73
2021/10/30 04:30:28;;;;;;;15.80;9.00;;;;;;;10.94;100.00;100220.94;5004426;28;20054;-73
2021/10/30 04:32:56;;;;;;;15.80;9.02;;;;;;;11.00;100.00;100210.84;5001225;28;20359;-74
2021/10/30 04:35:23;;;;;;;15.50;8.88;;;;;;;10.99;100.00;100203.75;5004771;28;20053;-73
2021/10/30 04:37:51;;;;;;;13.27;8.20;;;;;;;11.03;100.00;100207.16;4998330;28;20054;-73
2021/10/30 04:40:19;;;;;;;17.40;9.95;;;;;;;10.96;100.00;100198.56;5003903;28;20100;-74
2021/10/30 04:42:47;;;;;;;20.92;9.70;;;;;;;11.02;100.00;100187.63;5002566;28;20474;-74
2021/10/30 04:45:15;;;;;;;17.30;8.82;;;;;;;11.02;100.00;100189.44;5007424;28;20053;-73
2021/10/30 04:47:45;;;;;;;15.10;9.50;;;;;;;11.03;100.00;100194.69;5003005;28;20052;-74
2021/10/30 04:50:14;;;;;;;19.08;8.68;;;;;;;11.02;100.00;100182.28;5008481;28;20137;-73
2021/10/30 04:52:43;;;;;;;17.00;9.38;;;;;;;11.01;100.00;100183.19;5006280;28;20058;-73
2021/10/30 04:55:36;;;;;;;15.93;8.93;;;;;;;11.08;100.00;100177.59;5007092;28;20072;-72
2021/10/30 04:58:03;;;;;;;16.60;8.85;;;;;;;11.11;100.00;100178.31;5006207;28;20490;-72
2021/10/30 05:00:31;;;;;;;15.60;9.15;;;;;;;11.07;100.00;100170.50;5004428;28;20053;-73
2021/10/30 05:03:00;;;;;;;18.30;9.90;;;;;;;11.09;100.00;100166.00;5008935;28;20547;-73
2021/10/30 05:05:28;;;;;;;20.13;10.20;;;;;;;11.16;100.00;100162.97;5004418;28;20053;-75
2021/10/30 05:07:56;;;;;;;16.67;9.68;;;;;;;11.16;100.00;100165.63;5006013;28;20064;-73
2021/10/30 05:10:24;;;;;;;18.40;10.10;;;;;;;11.17;100.00;100166.53;5007034;28;20412;-74
2021/10/30 05:12:52;;;;;;;16.73;9.48;;;;;;;11.11;100.00;100161.44;5007322;28;20053;-73
2021/10/30 05:15:19;;;;;;;16.38;9.15;;;;;;;11.15;100.00;100157.69;5007853;28;20055;-73
2021/10/30 05:17:47;;;;;;;17.30;8.95;;;;;;;11.20;100.00;100151.22;5004108;28;20054;-72
2021/10/30 05:20:16;;;;;;;15.63;8.50;;;;;;;11.19;100.00;100148.63;5009390;28;20050;-73
2021/10/30 05:22:44;;;;;;;18.77;9.25;;;;;;;11.21;100.00;100146.75;5003632;28;20041;-74
2021/10/30 05:25:12;;;;;;;17.85;9.07;;;;;;;11.23;100.00;100136.84;5006640;28;20077;-73
2021/10/30 05:27:39;;;;;;;17.77;9.85;;;;;;;11.27;100.00;100142.91;5005370;28;20060;-72
2021/10/30 05:30:08;;;;;;;16.20;9.15;;;;;;;11.25;100.00;100145.66;5006853;28;20068;-73
2021/10/30 05:32:36;;;;;;;16.70;9.48;;;;;;;11.24;100.00;100138.59;5003427;28;20143;-73
2021/10/30 05:35:05;;;;;;;16.23;9.45;;;;;;;11.19;100.00;100127.25;5006770;28;20049;-72
2021/10/30 05:37:34;;;;;;;17.00;9.45;;;;;;;11.19;100.00;100128.13;5001613;28;20056;-72
2021/10/30 05:40:06;;;;;;;15.93;9.15;;;;;;;11.18;100.00;100117.50;5006362;28;20471;-75
2021/10/30 05:42:33;;;;;;;20.73;9.75;;;;;;;11.17;100.00;100119.31;5008533;28;20144;-73
2021/10/30 05:45:01;;;;;;;16.10;8.63;;;;;;;11.20;100.00;100115.63;5002985;28;20060;-73
2021/10/30 05:47:29;;;;;;;16.83;9.40;;;;;;;11.28;100.00;100101.94;5006709;28;20050;-74
2021/10/30 05:49:57;;;;;;;14.07;8.77;;;;;;;11.23;100.00;100104.81;5003974;28;20056;-74
2021/10/30 05:52:25;;;;;;;14.73;8.90;;;;;;;11.22;100.00;100100.44;5004922;28;20482;-73
2021/10/30 05:54:54;;;;;;;18.10;10.00;;;;;;;11.25;100.00;100102.94;5002941;28;20521;-73
2021/10/30 05:57:22;;;;;;;16.13;9.45;;;;;;;11.29;100.00;100092.97;5004920;28;20540;-73
2021/10/30 05:59:51;;;;;;;18.55;8.88;;;;;;;11.21;100.00;100082.66;5006516;28;20047;-73
2021/10/30 06:02:19;;;;;;;21.73;9.95;;;;;;;11.14;100.00;100105.25;5004001;28;20063;-73
2021/10/30 06:04:48;;;;;;;15.23;9.35;;;;;;;11.16;100.00;100103.38;5008140;28;20878;-72
2021/10/30 06:07:16;;;;;;;14.95;8.05;;;;;;;11.15;100.00;100089.16;5003489;28;20458;-74
2021/10/30 06:09:44;;;;;;;14.52;9.07;;;;;;;11.17;100.00;100084.59;5003175;28;20119;-73
2021/10/30 06:12:13;;;;;;;15.13;9.05;;;;;;;11.23;100.00;100087.94;5003995;28;20562;-73
2021/10/30 06:14:41;;;;;;;15.73;9.00;;;;;;;11.16;100.00;100082.84;5005427;28;20737;-73
2021/10/30 06:17:09;;;;;;;16.48;8.55;;;;;;;11.17;100.00;100097.09;5001354;28;20172;-72
2021/10/30 06:19:37;;;;;;;14.70;9.07;;;;;;;11.15;100.00;100110.53;5006104;28;20357;-73
2021/10/30 06:22:05;;;;;;;16.33;9.65;;;;;;;11.14;100.00;100103.44;5007055;28;20405;-73
2021/10/30 06:24:33;;;;;;;15.07;8.63;;;;;;;11.17;100.00;100092.63;5001687;28;20141;-72
2021/10/30 06:27:01;;;;;;;15.43;8.93;;;;;;;11.21;100.00;100102.19;5006398;28;20446;-72
2021/10/30 06:29:54;;;;;;;20.33;9.65;;;;;;;11.16;100.00;100092.69;5003172;28;20064;-72
2021/10/30 06:32:22;;;;;;;19.38;9.30;;;;;;;11.17;100.00;100094.44;5005220;28;20043;-73
2021/10/30 06:34:50;;;;;;;16.88;8.55;;;;;;;11.17;100.00;100081.94;5003760;28;20504;-73
2021/10/30 06:37:42;;;;;;;15.98;8.75;;;;;;;11.11;100.00;100082.22;5003723;28;20076;-72
2021/10/30 06:40:11;;;;;;;17.48;9.20;;;;;;;11.15;100.00;100077.59;5000938;28;20049;-72
2021/10/30 06:42:39;;;;;;;14.77;8.52;;;;;;;11.17;100.00;100081.06;5004903;28;20164;-72
2021/10/30 06:45:09;;;;;;;18.17;8.30;;;;;;;11.15;100.00;100080.25;5002813;28;20424;-72
2021/10/30 06:47:37;;;;;;;18.77;8.35;;;;;;;11.18;100.00;100072.97;5006958;28;20594;-67
2021/10/30 06:50:06;;;;;;;13.20;8.02;;;;;;;11.18;100.00;100069.44;5007196;28;20192;-67
2021/10/30 06:52:38;;;;;;;17.02;8.98;;;;;;;11.21;100.00;100066.63;5002044;28;20049;-68
2021/10/30 06:55:07;;;;;;;16.13;8.77;;;;;;;11.24;100.00;100052.25;5003775;28;20124;-66
2021/10/30 06:57:37;;;;;;;13.23;7.32;;;;;;;11.27;100.00;100057.47;5003718;28;20127;-66
2021/10/30 07:00:09;;;;;;;14.40;8.30;;;;;;;11.29;100.00;100050.22;5005699;28;21509;-66
2021/10/30 07:02:38;;;;;;;14.60;8.68;;;;;;;11.28;100.00;100036.03;5001439;28;20088;-66
2021/10/30 07:05:07;;;;;;;18.27;9.77;;;;;;;11.25;100.00;100028.16;5004927;28;20339;-66
2021/10/30 07:07:35;;;;;;;14.60;9.02;;;;;;;11.22;100.00;100036.34;5005778;28;20049;-66
2021/10/30 07:10:07;;;;;;;13.38;7.57;;;;;;;11.23;100.00;100050.53;5008067;28;20053;-66
2021/10/30 07:12:37;;;;;;;18.38;8.82;;;;;;;11.19;100.00;100034.66;5003231;28;20315;-66
2021/10/30 07:15:06;;;;;;;15.88;8.98;;;;;;;11.23;100.00;100027.38;5006094;28;20052;-66
2021/10/30 07:17:36;;;;;;;15.77;9.07;;;;;;;11.22;100.00;100012.31;5005747;28;20057;-66
2021/10/30 07:20:06;;;;;;;16.30;8.63;;;;;;;11.23;100.00;100035.38;5003980;28;20216;-66
2021/10/30 07:22:43;;;;;;;15.43;8.98;;;;;;;11.17;100.00;100035.69;5008482;28;20060;-66
2021/10/30 07:25:12;;;;;;;13.95;8.00;;;;;;;11.27;100.00;100038.75;5001324;28;20501;-67
2021/10/30 07:27:45;;;;;;;16.83;9.25;;;;;;;11.26;100.00;100021.88;5005485;28;20092;-68
2021/10/30 07:30:24;;;;;;;13.82;8.88;;;;;;;11.26;100.00;100018.34;5005125;28;20053;-67
2021/10/30 07:32:54;;;;;;;16.15;9.27;;;;;;;11.22;100.00;100012.31;5004050;28;20356;-67
2021/10/30 07:35:23;;;;;;;13.35;8.70;;;;;;;11.22;100.00;100006.97;5006374;28;20076;-67
2021/10/30 07:37:57;;;;;;;16.85;8.93;;;;;;;11.25;100.00;100012.13;5003243;28;20144;-67
2021/10/30 07:40:30;;;;;;;16.95;8.73;;;;;;;11.26;100.00;100013.00;5004543;28;20139;-67
2021/10/30 07:42:58;;;;;;;13.90;8.68;;;;;;;11.23;100.00;100010.47;5001607;28;20329;-67
2021/10/30 07:45:27;;;;;;;15.25;8.65;;;;;;;11.25;100.00;100009.47;5007603;28;20077;-67
2021/10/30 07:48:00;;;;;;;16.48;8.73;;;;;;;11.20;100.00;100008.81;5003072;28;20091;-67
2021/10/30 07:50:31;;;;;;;15.18;8.80;;;;;;;11.18;100.00;100008.88;5005814;28;20481;-67
2021/10/30 07:53:01;;;;;;;14.50;8.38;;;;;;;11.25;100.00;100003.25;4998943;28;20609;-72
2021/10/30 07:55:29;;;;;;;19.83;8.93;;;;;;;11.29;100.00;100003.03;5003847;28;20053;-73
2021/10/30 07:57:59;;;;;;;15.75;8.82;;;;;;;11.23;100.00;100000.66;5003214;28;20512;-73
2021/10/30 08:00:27;;;;;;;18.60;9.48;;;;;;;11.33;100.00;99995.75;5003511;28;20161;-73
2021/10/30 08:02:55;;;;;;;15.57;8.93;;;;;;;11.28;100.00;99993.28;4999600;28;20438;-72
2021/10/30 08:05:24;;;;;;;13.20;7.97;;;;;;;11.31;100.00;99997.63;5002374;28;20078;-72
2021/10/30 08:07:52;;;;;;;15.13;8.40;;;;;;;11.37;100.00;99997.31;5006062;28;20069;-73
2021/10/30 08:10:21;;;;;;;17.42;8.65;;;;;;;11.34;100.00;99992.13;5002455;28;20128;-73
2021/10/30 08:12:49;;;;;;;13.52;7.68;;;;;;;11.36;100.00;99999.13;5005216;28;20046;-72
2021/10/30 08:15:18;;;;;;;16.67;9.15;;;;;;;11.38;100.00;99996.38;5001184;28;20058;-73
2021/10/30 08:17:47;;;;;;;11.90;7.72;;;;;;;11.37;100.00;99981.28;5007830;28;20053;-73
2021/10/30 08:20:15;;;;;;;16.17;7.95;;;;;;;11.45;100.00;99983.59;5005866;28;20550;-74
2021/10/30 08:22:44;;;;;;;13.75;8.25;;;;;;;11.44;100.00;99984.53;5008479;28;20099;-73
2021/10/30 08:25:11;;;;;;;13.65;7.80;;;;;;;11.45;100.00;99996.97;5007296;28;20060;-73
2021/10/30 08:27:39;;;;;;;15.55;7.32;;;;;;;11.47;100.00;100001.28;5010851;28;20052;-72
2021/10/30 08:30:08;;;;;;;13.60;7.63;;;;;;;11.49;100.00;100003.88;5007218;28;20140;-72
2021/10/30 08:32:36;;;;;;;13.43;7.93;;;;;;;11.48;100.00;99997.66;5003353;28;20341;-71
2021/10/30 08:35:05;;;;;;;12.60;5.93;;;;;;;11.61;100.00;99991.72;5010121;28;20136;-71
2021/10/30 08:37:38;;;;;;;12.98;7.88;;;;;;;11.61;100.00;99989.91;5005400;28;20556;-71
2021/10/30 08:40:10;;;;;;;13.80;8.35;;;;;;;11.58;100.00;99988.25;5009116;28;20057;-71
2021/10/30 08:42:57;;;;;;;12.55;7.25;;;;;;;11.61;100.00;99973.88;5007887;28;20083;-72
2021/10/30 08:45:30;;;;;;;16.45;8.60;;;;;;;11.67;100.00;99986.06;5007487;28;20488;-72
2021/10/30 08:47:59;;;;;;;12.32;7.38;;;;;;;11.61;100.00;99971.19;5004871;28;20049;-71
2021/10/30 08:50:28;;;;;;;12.07;7.75;;;;;;;11.52;100.00;99977.88;5005632;28;20091;-70
2021/10/30 08:53:01;;;;;;;13.52;8.32;;;;;;;11.51;100.00;99975.25;5003824;28;20063;-70
2021/10/30 08:55:30;;;;;;;11.77;7.53;;;;;;;11.50;100.00;99966.41;5005803;28;20054;-70
2021/10/30 08:58:05;;;;;;;12.98;7.93;;;;;;;11.49;100.00;99966.47;5008505;28;20045;-70
2021/10/30 09:00:32;;;;;;;13.05;7.80;;;;;;;11.53;100.00;99971.59;5003317;28;20474;-70
2021/10/30 09:03:02;;;;;;;14.52;8.02;;;;;;;11.53;100.00;99970.72;5007344;28;20061;-70
2021/10/30 09:05:31;;;;;;;12.45;7.40;;;;;;;11.53;100.00;99984.09;5002904;28;20054;-70
2021/10/30 09:08:02;;;;;;;12.27;7.32;;;;;;;11.51;100.00;99975.25;5008022;28;20679;-70
2021/10/30 09:10:35;;;;;;;14.68;7.70;;;;;;;11.50;100.00;99977.09;5003389;28;20495;-69
2021/10/30 09:13:04;;;;;;;13.07;7.25;;;;;;;11.49;100.00;99967.34;5005973;28;20087;-69
2021/10/30 09:15:35;;;;;;;13.48;7.72;;;;;;;11.52;100.00;99961.84;5002836;28;20077;-69
2021/10/30 09:18:04;;;;;;;13.10;8.00;;;;;;;11.50;100.00;99957.53;5006929;28;20057;-69
2021/10/30 09:20:35;;;;;;;13.57;7.38;;;;;;;11.53;100.00;99958.22;5007572;28;20046;-69
2021/10/30 09:23:03;;;;;;;15.43;7.90;;;;;;;11.53;100.00;99958.22;5002779;28;20061;-69
2021/10/30 09:25:32;;;;;;;13.98;7.93;;;;;;;11.54;100.00;99965.31;5007702;28;20526;-69
2021/10/30 09:28:02;;;;;;;14.75;8.00;;;;;;;11.56;100.00;99954.53;5000907;28;20053;-69
2021/10/30 09:30:32;;;;;;;13.75;8.15;;;;;;;11.57;100.00;99959.78;5006099;28;20049;-69
2021/10/30 09:33:02;;;;;;;14.25;8.18;;;;;;;11.55;100.00;99950.16;5001590;28;20049;-69
2021/10/30 09:35:33;;;;;;;16.15;7.85;;;;;;;11.58;100.00;99953.53;5005698;28;20495;-69
2021/10/30 09:38:01;;;;;;;11.82;7.63;;;;;;;11.62;100.00;99954.22;5004239;28;20132;-69
2021/10/30 09:40:31;;;;;;;13.30;7.63;;;;;;;11.59;100.00;99955.25;5004331;28;20076;-70
2021/10/30 09:43:13;;;;;;;13.82;7.80;;;;;;;11.59;100.00;99957.94;5003769;28;20045;-70
2021/10/30 09:45:47;;;;;;;12.80;8.15;;;;;;;11.61;100.00;99955.16;5006784;28;20343;-68
2021/10/30 09:48:16;;;;;;;11.75;7.75;;;;;;;11.65;100.00;99954.09;5008325;28;20128;-68
2021/10/30 09:50:44;;;;;;;14.07;8.20;;;;;;;11.64;100.00;99959.50;5004846;28;20362;-70
2021/10/30 09:53:28;;;;;;;15.80;8.27;;;;;;;11.71;100.00;99944.88;5004023;28;20057;-69
2021/10/30 09:55:57;;;;;;;14.53;8.00;;;;;;;11.68;100.00;99939.69;5002906;28;20461;-68
2021/10/30 09:58:30;;;;;;;13.85;7.10;;;;;;;11.68;100.00;99948.59;5006798;28;20053;-68
2021/10/30 10:01:00;;;;;;;10.40;7.32;;;;;;;11.71;100.00;99952.91;5003611;28;20053;-68
2021/10/30 10:03:31;;;;;;;11.23;7.25;;;;;;;11.72;100.00;99941.28;5007675;28;20149;-69
2021/10/30 10:06:01;;;;;;;11.85;7.53;;;;;;;11.78;100.00;99947.19;5006395;28;20290;-69
2021/10/30 10:08:29;;;;;;;14.68;7.85;;;;;;;11.77;100.00;99942.75;5005272;28;20049;-68
2021/10/30 10:10:58;;;;;;;13.88;8.30;;;;;;;11.83;100.00;99946.06;5008911;28;20049;-69
2021/10/30 10:13:27;;;;;;;11.68;6.72;;;;;;;11.89;100.00;99949.28;5005292;28;20398;-68
2021/10/30 10:15:56;;;;;;;11.70;7.40;;;;;;;11.88;100.00;99947.53;5007547;28;20042;-65
2021/10/30 10:18:23;;;;;;;10.88;7.18;;;;;;;11.88;100.00;99944.00;5004048;28;20046;-66
2021/10/30 10:20:52;;;;;;;13.85;7.43;;;;;;;11.86;100.00;99945.91;5008244;28;20050;-65
2021/10/30 10:23:21;;;;;;;13.55;7.22;;;;;;;11.87;100.00;99947.66;5005595;28;20050;-65
2021/10/30 10:25:51;;;;;;;13.13;6.88;;;;;;;11.85;100.00;99947.72;5005706;28;20048;-65
2021/10/30 10:28:28;;;;;;;12.05;7.28;;;;;;;11.89;100.00;99949.28;5002110;28;20260;-67
2021/10/30 10:31:00;;;;;;;9.93;6.25;;;;;;;11.92;100.00;99934.94;5004421;28;20053;-65
2021/10/30 10:33:30;;;;;;;;;;;;;;;11.91;100.00;99938.56;5008422;28;20288;-65
2021/10/30 10:36:21;;;;;;;12.23;7.03;;;;;;;11.90;100.00;99935.00;5004328;28;19935;-65
2021/10/30 10:39:12;;;;;;;10.27;6.72;;;;;;;11.92;100.00;99926.91;5007811;28;20045;-64
2021/10/30 10:41:52;;;;;;;11.30;7.38;;;;;;;11.91;100.00;99918.03;4994866;28;20457;-65
2021/10/30 10:45:07;;;;;;;12.95;7.88;;;;;;;11.92;100.00;99911.75;5004774;28;20069;-65
2021/10/30 10:47:58;;;;;;;12.18;6.85;;;;;;;11.95;100.00;99918.72;5008727;28;20042;-64
2021/10/30 10:50:35;;;;;;;12.52;7.10;;;;;;;11.99;100.00;99916.78;5002460;28;20045;-65
2021/10/30 10:53:32;;;;;;;14.20;7.72;;;;;;;12.00;100.00;99908.66;5004194;28;20406;-65
2021/10/30 10:56:17;;;;;;;12.30;7.10;;;;;;;12.06;100.00;99915.50;5005486;28;20046;-65
2021/10/30 10:59:06;;;;;;;11.00;6.97;;;;;;;12.05;100.00;99919.09;5002637;28;20120;-65
2021/10/30 11:01:39;;;;;;;14.52;7.28;;;;;;;12.09;100.00;99907.31;5004467;28;20180;-65
2021/10/30 11:04:12;;;;;;;;;;;;;;;12.10;100.00;99904.53;5006263;28;20207;-65
2021/10/30 11:06:45;;;;;;;13.13;6.82;;;;;;;12.06;100.00;99905.66;5003872;28;19947;-65
2021/10/30 11:09:15;;;;;;;13.20;7.88;;;;;;;12.04;100.00;99894.19;5002765;28;20159;-65
2021/10/30 11:11:44;;;;;;;11.02;6.70;;;;;;;12.09;100.00;99900.16;5005196;28;20055;-65
2021/10/30 11:14:13;;;;;;;12.63;6.70;;;;;;;12.09;100.00;99889.47;5001282;28;20075;-67
2021/10/30 11:16:44;;;;;;;11.88;6.72;;;;;;;12.10;100.00;99893.84;5002442;28;20053;-65
2021/10/30 11:19:22;;;;;;;10.63;6.55;;;;;;;12.12;100.00;99878.59;5000547;28;20049;-70
2021/10/30 11:21:56;;;;;;;13.65;7.00;;;;;;;12.15;100.00;99885.59;5003291;28;20057;-69
2021/10/30 11:24:28;;;;;;;10.05;6.63;;;;;;;12.13;100.00;99879.47;4999908;28;20065;-68